This is the latest recevied weather packets stored in our database for station/object W4CKA. If no packets are shown the sender has not sent any weather packets the latest 10 day(s).
| Time | Temp. | Humidity | Pressure | Rain* | Wind** | Luminosity | Snow |
|---|---|---|---|---|---|---|---|
| 1777553756 | 13.89° C | 80% | 1056.2 hPa | 0 mm | - | 275 W/m² | - |
| 1777553155 | 13.89° C | 78% | 1056.2 hPa | 0 mm | - | 159 W/m² | - |
| 1777552551 | 14.44° C | 75% | 1056.2 hPa | 0 mm | - | 124 W/m² | - |
| 1777551950 | 13.89° C | 78% | 1056 hPa | 0 mm | - | 117 W/m² | - |
| 1777551345 | 13.89° C | 77% | 1056 hPa | 0 mm | - | 97 W/m² | - |
| 1777550744 | 13.89° C | 79% | 1056 hPa | 0 mm | - | 83 W/m² | - |
| 1777550143 | 13.33° C | 84% | 1056 hPa | 0 mm | - | 67 W/m² | - |
| 1777549542 | 11.67° C | 86% | 1055.4 hPa | 0 mm | - | 34 W/m² | - |
| 1777548940 | 11.11° C | 88% | 1055.2 hPa | 0 mm | - | 29 W/m² | - |
| 1777548339 | 11.11° C | 89% | 1055.2 hPa | 0 mm | - | 18 W/m² | - |
| 1777547738 | 11.11° C | 91% | 1055.3 hPa | 0 mm | - | 9 W/m² | - |
| 1777547138 | 10.56° C | 95% | 1055.1 hPa | 0 mm | - | 4 W/m² | - |
| 1777546537 | 10.56° C | 96% | 1055.1 hPa | 0 mm | - | 2 W/m² | - |
| 1777545938 | 10° C | 99% | 1055 hPa | 0 mm | - | 0 W/m² | - |
| 1777545336 | 10° C | 99% | 1054.8 hPa | 0 mm | - | 0 W/m² | - |
| 1777544736 | 10° C | 99% | 1054.2 hPa | 0 mm | - | 0 W/m² | - |
| 1777544134 | 10° C | 99% | 1054.2 hPa | 0 mm | - | 0 W/m² | - |
| 1777543533 | 10° C | 99% | 1054.1 hPa | 0 mm | - | 0 W/m² | - |
| 1777542932 | 10° C | 99% | 1054.1 hPa | 0 mm | - | 0 W/m² | - |
| 1777542330 | 10° C | 99% | 1053.8 hPa | 0 mm | - | 0 W/m² | - |
| 1777541731 | 9.44° C | 99% | 1054.2 hPa | 0 mm | - | 0 W/m² | - |
| 1777541129 | 10° C | 99% | 1054.2 hPa | 0 mm | - | 0 W/m² | - |
| 1777540524 | 10° C | 99% | 1053.9 hPa | 0 mm | - | 0 W/m² | - |
| 1777539921 | 10° C | 99% | 1053.9 hPa | 0 mm | - | 0 W/m² | - |
| 1777539320 | 10.56° C | 99% | 1053.7 hPa | 0 mm | - | 0 W/m² | - |
* Rain latest hour (hover to see other rain measurements)
** Current wind speed in m/s (hover to see current wind gust speed)